Weather at 1st Street/Center Parking Garage Helipad [CLOSED]

Public forecast

Using degrees Fahrenheit for public forecast. Weather courtesy of forecast.io.

Closest aviation weather report (METAR) to 1st Street/Center Parking Garage Helipad

Closest report is Falcon Field, 5.9 nm (10.9 km) ENE. Retrieved 2021/06/19 21:54 UTC (6 minutes ago):

KFFZ 192154Z AUTO 28011KT 10SM CLR 44/07 A2961 RMK AO2 SLP993 T04440072 TSNO

Closest aviation forecast (TAF) to 1st Street/Center Parking Garage Helipad

Closest forecast is Phoenix Sky Harbor International Airport, 8.7 nm (16.2 km) W. Retrieved 2021/06/19 18:42 UTC (3 hours ago):

TAF KPHX 191741Z 1918/2024 25008KT P6SM SKC TEMPO 1918/1919 17008KT FM192100 27015G22KT P6SM SKC FM200400 25010KT P6SM SKC FM201100 11005KT P6SM FEW150 FEW250 FM201700 25010KT P6SM SKC FM202000 27017G24KT P6SM SKC